Wetterdaten: aktuell Sonntag, 19.05.2024 19:54
Datum Zeit Temp. A. Feuchte A. Luftdruck Regen Wind Sonnenschein ET UV Solar Taupunkt Windben
19.05.2024 19:54 15,8 C 75 % 1010,1 hPa 0,0 l/m 2,8 km/h (1 Bft) 48 min 0,177 mm 0,0 UV-I 27 W/m 11,4 C 4,8 km/h (1 Bft)
19.05.2024 18:54 17,0 C 68 % 1009,7 hPa 0,0 l/m 12,3 km/h (3 Bft) 60 min 0,001 mm 0,0 UV-I 203 W/m 11,0 C 19,3 km/h (3 Bft)
19.05.2024 17:54 17,2 C 72 % 1009,8 hPa 0,0 l/m 3,8 km/h (1 Bft) 60 min 0,254 mm 0,5 UV-I 86 W/m 12,1 C 6,4 km/h (2 Bft)
19.05.2024 16:54 17,2 C 71 % 1010,5 hPa 0,0 l/m 9,7 km/h (2 Bft) 60 min 0,330 mm 1,7 UV-I 694 W/m 11,9 C 12,9 km/h (3 Bft)
19.05.2024 15:54 16,6 C 73 % 1010,7 hPa 0,0 l/m 6,8 km/h (2 Bft) 60 min 0,229 mm 2,1 UV-I 603 W/m 11,7 C 11,3 km/h (2 Bft)
19.05.2024 14:54 15,6 C 73 % 1011,0 hPa 0,0 l/m 10,6 km/h (2 Bft) 60 min 0,228 mm 1,1 UV-I 267 W/m 10,8 C 14,5 km/h (3 Bft)
19.05.2024 13:54 16,7 C 69 % 1011,1 hPa 0,0 l/m 9,3 km/h (2 Bft) 60 min 0,254 mm 0,8 UV-I 170 W/m 11,0 C 12,9 km/h (3 Bft)
19.05.2024 12:54 17,2 C 74 % 1011,3 hPa 0,0 l/m 1,8 km/h (1 Bft) 60 min 0,001 mm 1,5 UV-I 388 W/m 12,5 C 4,8 km/h (1 Bft)
19.05.2024 11:54 16,6 C 72 % 1011,8 hPa 0,0 l/m 8,9 km/h (2 Bft) 60 min 0,177 mm 1,9 UV-I 316 W/m 11,5 C 14,5 km/h (3 Bft)
19.05.2024 10:54 14,8 C 78 % 1011,9 hPa 0,0 l/m 7,9 km/h (2 Bft) 60 min 0,229 mm 1,3 UV-I 318 W/m 11,0 C 11,3 km/h (2 Bft)
19.05.2024 09:54 15,4 C 77 % 1011,7 hPa 0,0 l/m 8,0 km/h (2 Bft) 60 min 0,152 mm 0,8 UV-I 240 W/m 11,4 C 11,3 km/h (2 Bft)
19.05.2024 08:54 14,9 C 79 % 1011,6 hPa 0,0 l/m 4,6 km/h (1 Bft) 60 min 0,077 mm 0,7 UV-I 233 W/m 11,3 C 9,7 km/h (2 Bft)
19.05.2024 07:54 13,6 C 82 % 1011,4 hPa 0,0 l/m 11,7 km/h (2 Bft) 60 min 0,025 mm 0,2 UV-I 122 W/m 10,6 C 17,7 km/h (3 Bft)
19.05.2024 06:54 11,3 C 91 % 1011,4 hPa 0,0 l/m 0,7 km/h (0 Bft) 38 min 0,000 mm 0,0 UV-I 85 W/m 9,9 C 3,2 km/h (1 Bft)
19.05.2024 05:54 10,1 C 92 % 1011,2 hPa 0,0 l/m 2,2 km/h (1 Bft) 0 min 0,000 mm 0,0 UV-I 23 W/m 8,9 C 3,2 km/h (1 Bft)
19.05.2024 04:54 10,4 C 91 % 1010,7 hPa 0,0 l/m 0,0 km/h (0 Bft) 0 min 0,000 mm 0,0 UV-I 0 W/m 9,0 C 0,0 km/h (0 Bft)
19.05.2024 03:54 10,9 C 89 % 1010,8 hPa 0,0 l/m 0,0 km/h (0 Bft) 0 min 0,000 mm 0,0 UV-I 0 W/m 9,2 C 0,0 km/h (0 Bft)
19.05.2024 02:54 11,1 C 90 % 1011,1 hPa 0,0 l/m 0,2 km/h (0 Bft) 0 min 0,000 mm 0,0 UV-I 0 W/m 9,5 C 1,6 km/h (1 Bft)
19.05.2024 01:54 10,9 C 91 % 1011,2 hPa 0,0 l/m 0,0 km/h (0 Bft) 0 min 0,000 mm 0,0 UV-I 0 W/m 9,5 C 0,0 km/h (0 Bft)
19.05.2024 00:54 11,4 C 89 % 1011,7 hPa 0,0 l/m 0,0 km/h (0 Bft) 0 min 0,000 mm 0,0 UV-I 0 W/m 9,7 C 0,0 km/h (0 Bft)
18.05.2024 23:54 11,7 C 89 % 1011,5 hPa 0,0 l/m 0,0 km/h (0 Bft) 0 min 0,000 mm 0,0 UV-I 0 W/m 9,9 C 0,0 km/h (0 Bft)
18.05.2024 22:54 12,3 C 87 % 1011,2 hPa 0,0 l/m 0,0 km/h (0 Bft) 0 min 0,000 mm 0,0 UV-I 0 W/m 10,2 C 0,0 km/h (0 Bft)
18.05.2024 21:54 13,1 C 83 % 1011,1 hPa 0,0 l/m 0,0 km/h (0 Bft) 0 min 0,000 mm 0,0 UV-I 0 W/m 10,3 C 0,0 km/h (0 Bft)
18.05.2024 20:54 14,1 C 82 % 1010,9 hPa 0,0 l/m 1,2 km/h (1 Bft) 0 min 0,025 mm 0,0 UV-I 0 W/m 11,1 C 4,8 km/h (1 Bft)
18.05.2024 20:00 15,1 C 78 % 1010,7 hPa 0,0 l/m 0,0 km/h (0 Bft) 0 min 0,000 mm 0,0 UV-I 20 W/m 11,3 C 0,0 km/h (0 Bft)
_ Min-Zeit 05:32 16:22 18:16 - 20:00 - - - - 05:34 20:00
Minimum _ 9,9 C 64 % 1009,5 hPa - 0,0 km/h (0 Bft) - - - - 8,5 C 0,0 km/h (0 Bft)
_ Max-Zeit 16:18 06:32 11:08 20:00 15:14 06:18 16:02 13:26 13:10 15:04 15:14
Maximum _ 18,0 C 93 % 1012,2 hPa 0,0 l/m 17,6 km/h
W (3 Bft)
2 min 0,330 mm 4,1 UV-I 1076 W/m 12,7 C 25,7 km/h
SW (4 Bft)
Durchschnitt _ 14,1 C 80 % 1011,0 hPa #0,0 l/m 3,8 km/h (1 Bft) #13:26 h #2,565 mm 1,4 UV-I 296 W/m 10,7 C 6,4 km/h (2 Bft)